createdAt,value
2022-10-10T00:01:29.090Z,99.90
2022-10-10T00:03:56.349Z,99.90
2022-10-10T00:06:23.807Z,99.90
2022-10-10T00:08:52.167Z,99.90
2022-10-10T00:11:21.541Z,99.90
2022-10-10T00:13:49.031Z,99.90
2022-10-10T00:16:16.509Z,99.90
2022-10-10T00:18:43.845Z,99.90
2022-10-10T00:21:11.542Z,99.90
2022-10-10T00:23:38.687Z,99.90
2022-10-10T00:26:08.992Z,99.90
2022-10-10T00:28:40.392Z,99.90
2022-10-10T00:31:09.038Z,99.90
2022-10-10T00:33:37.306Z,99.90
2022-10-10T00:36:04.853Z,99.90
2022-10-10T00:38:32.682Z,99.90
2022-10-10T00:41:00.760Z,99.90
2022-10-10T00:43:28.687Z,99.90
2022-10-10T00:45:55.674Z,99.90
2022-10-10T00:48:48.381Z,99.90
2022-10-10T00:51:18.714Z,99.90
2022-10-10T00:53:58.801Z,99.90
2022-10-10T00:56:40.073Z,99.90
2022-10-10T00:59:11.209Z,99.90
2022-10-10T01:01:39.509Z,99.90
2022-10-10T01:04:07.048Z,99.90
2022-10-10T01:06:34.384Z,99.90
2022-10-10T01:09:01.337Z,99.90
2022-10-10T01:11:47.043Z,99.90
2022-10-10T01:14:47.494Z,99.90
2022-10-10T01:17:27.104Z,99.90
2022-10-10T01:20:08.906Z,99.90
2022-10-10T01:23:12.825Z,99.90
2022-10-10T01:26:09.320Z,99.90
2022-10-10T01:29:02.858Z,99.90
2022-10-10T01:31:34.415Z,99.90
2022-10-10T01:34:11.234Z,99.90
2022-10-10T01:37:08.832Z,99.90
2022-10-10T01:39:38.680Z,99.90
2022-10-10T01:42:12.970Z,99.90
2022-10-10T01:44:47.144Z,99.90
2022-10-10T01:47:14.856Z,99.90
2022-10-10T01:49:44.801Z,99.90
2022-10-10T01:52:42.426Z,99.90
2022-10-10T01:55:23.656Z,99.90
2022-10-10T01:58:08.673Z,99.90
2022-10-10T02:01:05.125Z,99.90
2022-10-10T02:03:37.940Z,99.90
2022-10-10T02:06:23.849Z,99.90
2022-10-10T02:09:00.185Z,99.90
2022-10-10T02:11:29.518Z,99.90
2022-10-10T02:14:02.504Z,99.90
2022-10-10T02:16:36.283Z,99.90
2022-10-10T02:19:07.941Z,99.90
2022-10-10T02:21:35.077Z,99.90
2022-10-10T02:24:05.832Z,99.90
2022-10-10T02:26:33.536Z,99.90
2022-10-10T02:29:03.718Z,99.90
2022-10-10T02:31:40.074Z,99.90
2022-10-10T02:34:13.495Z,99.90
2022-10-10T02:36:43.830Z,99.90
2022-10-10T02:39:12.952Z,99.90
2022-10-10T02:41:42.434Z,99.90
2022-10-10T02:44:10.468Z,99.90
2022-10-10T02:46:37.392Z,99.90
2022-10-10T02:49:08.317Z,99.90
2022-10-10T02:51:35.500Z,99.90
2022-10-10T02:54:02.434Z,99.90
2022-10-10T02:56:29.333Z,99.90
2022-10-10T02:58:56.120Z,99.90
2022-10-10T03:01:23.035Z,99.90
2022-10-10T03:03:50.273Z,99.90
2022-10-10T03:06:17.645Z,99.90
2022-10-10T03:08:44.465Z,99.90
2022-10-10T03:11:11.469Z,99.90
2022-10-10T03:13:38.285Z,99.90
2022-10-10T03:16:06.760Z,99.90
2022-10-10T03:18:33.693Z,99.90
2022-10-10T03:21:00.541Z,99.90
2022-10-10T03:23:27.456Z,99.90
2022-10-10T03:25:54.400Z,99.90
2022-10-10T03:28:21.886Z,99.90
2022-10-10T03:30:49.212Z,99.90
2022-10-10T03:33:16.186Z,99.90
2022-10-10T03:35:43.158Z,99.90
2022-10-10T03:38:12.933Z,99.90
2022-10-10T03:40:41.475Z,99.90
2022-10-10T03:43:10.236Z,99.90
2022-10-10T03:45:37.967Z,99.90
2022-10-10T03:48:05.718Z,99.90
2022-10-10T03:50:32.772Z,99.90
2022-10-10T03:52:59.684Z,99.90
2022-10-10T03:55:26.520Z,99.90
2022-10-10T03:57:53.356Z,99.90
2022-10-10T04:00:20.802Z,99.90
2022-10-10T04:02:47.845Z,99.90
2022-10-10T04:05:14.954Z,99.90
2022-10-10T04:07:42.509Z,99.90
2022-10-10T04:10:10.064Z,99.90
2022-10-10T04:12:36.963Z,99.90
2022-10-10T04:15:04.166Z,99.90
2022-10-10T04:17:31.015Z,99.90
2022-10-10T04:19:57.850Z,99.90
2022-10-10T04:22:24.754Z,99.90
2022-10-10T04:24:51.604Z,99.90
2022-10-10T04:27:18.436Z,99.90
2022-10-10T04:29:45.332Z,99.90
2022-10-10T04:32:12.185Z,99.90
2022-10-10T04:34:39.123Z,99.90
2022-10-10T04:37:05.903Z,99.90
2022-10-10T04:39:32.808Z,99.90
2022-10-10T04:41:59.686Z,99.90
2022-10-10T04:44:26.546Z,99.90
2022-10-10T04:46:53.348Z,99.90
2022-10-10T04:49:20.270Z,99.90
2022-10-10T04:51:47.111Z,99.90
2022-10-10T04:54:14.125Z,99.90
2022-10-10T04:56:43.857Z,99.90
2022-10-10T04:59:10.708Z,99.90
2022-10-10T05:01:37.853Z,99.90
2022-10-10T05:04:05.149Z,99.90
2022-10-10T05:06:32.024Z,99.90
2022-10-10T05:08:58.948Z,99.90
2022-10-10T05:11:25.748Z,99.90
2022-10-10T05:13:52.611Z,99.90
2022-10-10T05:16:19.434Z,99.90
2022-10-10T05:18:46.287Z,99.90
2022-10-10T05:21:13.112Z,99.90
2022-10-10T05:23:41.829Z,99.90
2022-10-10T05:26:09.065Z,99.90
2022-10-10T05:28:36.750Z,99.90
2022-10-10T05:31:05.111Z,99.90
2022-10-10T05:33:33.469Z,99.90
2022-10-10T05:36:10.682Z,99.90
2022-10-10T05:38:38.631Z,99.90
2022-10-10T05:41:05.881Z,99.90
2022-10-10T05:43:32.873Z,99.90
2022-10-10T05:45:59.641Z,99.90
2022-10-10T05:48:26.541Z,99.90
2022-10-10T05:50:55.909Z,99.90
2022-10-10T05:53:24.315Z,99.90
2022-10-10T05:55:51.142Z,99.90
2022-10-10T05:58:18.113Z,99.90
2022-10-10T06:00:46.367Z,99.90
2022-10-10T06:03:16.839Z,99.90
2022-10-10T06:05:45.901Z,99.90
2022-10-10T06:08:12.961Z,99.90
2022-10-10T06:10:45.685Z,99.90
2022-10-10T06:13:15.084Z,99.90
2022-10-10T06:15:42.012Z,99.90
2022-10-10T06:18:09.949Z,99.90
2022-10-10T06:20:39.080Z,99.90
2022-10-10T06:23:07.711Z,99.90
2022-10-10T06:25:40.388Z,99.90
2022-10-10T06:28:08.274Z,99.90
2022-10-10T06:30:39.091Z,99.90
2022-10-10T06:33:05.949Z,99.90
2022-10-10T06:35:32.721Z,92.80
2022-10-10T06:37:59.587Z,40.70
2022-10-10T06:40:26.477Z,1.00
2022-10-10T06:42:53.679Z,1.00
2022-10-10T06:45:20.756Z,1.00
2022-10-10T06:47:47.576Z,1.00
2022-10-10T06:50:14.437Z,1.00
2022-10-10T06:52:41.562Z,1.00
2022-10-10T06:55:08.922Z,1.00
2022-10-10T06:57:35.701Z,1.00
2022-10-10T07:00:02.699Z,1.00
2022-10-10T07:02:29.534Z,1.00
2022-10-10T07:04:56.407Z,1.00
2022-10-10T07:07:23.249Z,1.00
2022-10-10T07:09:50.038Z,1.00
2022-10-10T07:12:16.869Z,1.00
2022-10-10T07:14:43.634Z,1.00
2022-10-10T07:17:10.441Z,1.00
2022-10-10T07:19:37.899Z,15.00
2022-10-10T07:22:05.117Z,24.70
2022-10-10T07:24:32.006Z,24.20
2022-10-10T07:27:04.851Z,41.30
2022-10-10T07:29:34.841Z,46.80
2022-10-10T07:32:01.637Z,62.30
2022-10-10T07:34:28.476Z,88.00
2022-10-10T07:36:55.329Z,68.10
2022-10-10T07:39:24.144Z,59.90
2022-10-10T07:41:51.947Z,24.10
2022-10-10T07:44:19.845Z,1.00
2022-10-10T07:46:47.319Z,1.00
2022-10-10T07:49:14.202Z,1.00
2022-10-10T07:51:41.106Z,1.00
2022-10-10T07:54:08.024Z,1.00
2022-10-10T07:56:35.015Z,1.00
2022-10-10T07:59:02.020Z,1.00
2022-10-10T08:01:28.876Z,1.00
2022-10-10T08:03:57.371Z,99.90
2022-10-10T08:06:24.471Z,99.90
2022-10-10T08:08:52.464Z,99.90
2022-10-10T08:11:21.611Z,99.90
2022-10-10T08:13:49.466Z,99.90
2022-10-10T08:16:16.395Z,99.90
2022-10-10T08:18:43.344Z,99.90
2022-10-10T08:21:12.871Z,99.90
2022-10-10T08:23:40.133Z,99.90
2022-10-10T08:26:09.689Z,99.90
2022-10-10T08:28:37.814Z,99.90
2022-10-10T08:31:09.741Z,99.90
2022-10-10T08:33:40.604Z,99.90
2022-10-10T08:36:14.369Z,99.90
2022-10-10T08:38:41.480Z,99.90
2022-10-10T08:41:36.282Z,99.90
2022-10-10T08:44:44.828Z,99.90
2022-10-10T08:47:22.916Z,99.90
2022-10-10T08:49:55.703Z,99.90
2022-10-10T08:52:36.519Z,99.90
2022-10-10T08:55:18.686Z,99.90
2022-10-10T08:57:52.053Z,99.90
2022-10-10T09:00:22.882Z,99.90
2022-10-10T09:02:57.066Z,99.90
2022-10-10T09:06:23.086Z,99.90
2022-10-10T09:09:20.004Z,99.90
2022-10-10T09:11:58.649Z,99.90
2022-10-10T09:14:52.889Z,99.90
2022-10-10T09:17:24.060Z,99.90
2022-10-10T09:19:53.701Z,99.90
2022-10-10T09:22:28.120Z,99.90
2022-10-10T09:25:16.450Z,99.90
2022-10-10T09:28:07.841Z,99.90
2022-10-10T09:30:40.805Z,99.90
2022-10-10T09:33:34.204Z,99.90
2022-10-10T09:36:05.270Z,99.90
2022-10-10T09:38:34.644Z,99.90
2022-10-10T09:41:20.869Z,99.90
2022-10-10T09:43:48.456Z,99.90
2022-10-10T09:46:15.370Z,99.90
2022-10-10T09:48:43.151Z,99.90
2022-10-10T09:51:19.243Z,99.90
2022-10-10T09:53:48.112Z,99.90
2022-10-10T09:56:22.638Z,99.90
2022-10-10T09:58:52.360Z,99.90
2022-10-10T10:01:25.442Z,99.90
2022-10-10T10:04:27.902Z,99.90
2022-10-10T10:07:06.392Z,99.90
2022-10-10T10:09:34.006Z,99.90
2022-10-10T10:12:01.707Z,99.90
2022-10-10T10:14:39.204Z,99.90
2022-10-10T10:17:19.007Z,99.90
2022-10-10T10:19:47.174Z,99.90
2022-10-10T10:22:26.364Z,99.90
2022-10-10T10:24:53.915Z,99.90
2022-10-10T10:27:23.659Z,99.90
2022-10-10T10:29:52.648Z,99.90
2022-10-10T10:32:43.769Z,99.90
2022-10-10T10:35:36.276Z,99.90
2022-10-10T10:38:21.030Z,99.90
2022-10-10T10:41:20.024Z,99.90
2022-10-10T10:44:05.747Z,99.90
2022-10-10T10:46:47.702Z,99.90
2022-10-10T10:52:25.816Z,99.90
2022-10-10T10:55:07.256Z,99.90
2022-10-10T10:58:43.383Z,99.90
2022-10-10T11:01:23.437Z,99.90
2022-10-10T11:05:16.680Z,99.90
2022-10-10T11:07:13.813Z,99.90
2022-10-10T11:09:49.970Z,99.90
2022-10-10T11:12:38.597Z,99.90
2022-10-10T11:15:30.837Z,99.90
2022-10-10T11:18:10.046Z,99.90
2022-10-10T11:21:03.914Z,99.90
2022-10-10T11:23:37.132Z,99.90
2022-10-10T11:26:11.549Z,99.90
2022-10-10T11:28:46.038Z,99.90
2022-10-10T11:31:39.096Z,99.90
2022-10-10T11:34:12.517Z,99.90
2022-10-10T11:36:42.609Z,99.90
2022-10-10T11:39:31.676Z,99.90
2022-10-10T11:42:07.882Z,99.90
2022-10-10T11:44:43.753Z,99.90
2022-10-10T11:47:22.004Z,99.90
2022-10-10T11:50:02.587Z,99.90
2022-10-10T11:52:43.542Z,99.90
2022-10-10T11:55:10.371Z,99.90
2022-10-10T11:57:49.904Z,99.90
2022-10-10T12:00:18.566Z,99.90
2022-10-10T12:02:47.526Z,99.90
2022-10-10T12:05:22.842Z,99.90
2022-10-10T12:07:59.937Z,99.90
2022-10-10T12:10:35.924Z,99.90
2022-10-10T12:13:19.712Z,99.90
2022-10-10T12:15:52.679Z,99.90
2022-10-10T12:18:29.624Z,99.90
2022-10-10T12:21:16.223Z,99.90
2022-10-10T12:23:48.334Z,99.90
2022-10-10T12:26:22.305Z,99.90
2022-10-10T12:28:58.501Z,99.90
2022-10-10T12:31:43.282Z,99.90
2022-10-10T12:34:37.637Z,99.90
2022-10-10T12:37:26.497Z,99.90
2022-10-10T12:40:18.062Z,99.90
2022-10-10T12:42:47.823Z,99.90
2022-10-10T12:45:29.900Z,99.90
2022-10-10T12:48:06.428Z,99.90
2022-10-10T12:50:43.270Z,99.90
2022-10-10T12:53:12.825Z,99.90
2022-10-10T12:55:48.966Z,99.90
2022-10-10T12:58:29.978Z,99.90
2022-10-10T13:01:00.387Z,99.90
2022-10-10T13:03:39.061Z,99.90
2022-10-10T13:06:31.090Z,99.90
2022-10-10T13:08:58.948Z,99.90
2022-10-10T13:11:25.805Z,99.90
2022-10-10T13:13:57.297Z,99.90
2022-10-10T13:16:31.121Z,99.90
2022-10-10T13:19:00.355Z,99.90
2022-10-10T13:21:38.446Z,99.90
2022-10-10T13:24:06.499Z,99.90
2022-10-10T13:26:37.202Z,99.90
2022-10-10T13:29:25.800Z,99.90
2022-10-10T13:31:55.015Z,99.90
2022-10-10T13:34:27.316Z,99.90
2022-10-10T13:36:59.590Z,99.90
2022-10-10T13:39:28.604Z,99.90
2022-10-10T13:41:56.030Z,99.90
2022-10-10T13:44:32.572Z,99.90
2022-10-10T13:46:59.825Z,99.90
2022-10-10T13:49:32.759Z,99.90
2022-10-10T13:52:20.285Z,99.90
2022-10-10T13:54:48.615Z,99.90
2022-10-10T13:57:26.933Z,99.90
2022-10-10T14:00:04.255Z,99.90
2022-10-10T14:02:36.578Z,99.90
2022-10-10T14:05:09.257Z,1.00
2022-10-10T14:07:36.947Z,1.00
2022-10-10T14:10:09.643Z,99.90
2022-10-10T14:12:53.047Z,1.00
2022-10-10T14:15:41.849Z,1.00
2022-10-10T14:18:24.076Z,1.00
2022-10-10T14:20:53.384Z,1.00
2022-10-10T14:23:20.399Z,1.00
2022-10-10T14:25:49.065Z,99.90
2022-10-10T14:28:22.236Z,1.00
2022-10-10T14:30:49.131Z,1.00
2022-10-10T14:33:17.672Z,1.00
2022-10-10T14:35:46.264Z,99.90
2022-10-10T14:38:14.163Z,99.90
2022-10-10T14:40:43.107Z,99.90
2022-10-10T14:43:09.921Z,99.90
2022-10-10T14:45:36.853Z,99.90
2022-10-10T14:48:04.252Z,99.90
2022-10-10T14:50:36.783Z,99.90
2022-10-10T14:53:04.754Z,99.90
2022-10-10T14:55:31.791Z,99.90
2022-10-10T14:57:58.891Z,99.90
2022-10-10T15:00:27.237Z,99.90
2022-10-10T15:02:54.282Z,99.90
2022-10-10T15:05:22.059Z,99.90
2022-10-10T15:07:53.639Z,99.90
2022-10-10T15:10:33.752Z,99.90
2022-10-10T15:13:02.519Z,99.90
2022-10-10T15:15:29.604Z,99.90
2022-10-10T15:17:58.445Z,99.90
2022-10-10T15:20:31.093Z,99.90
2022-10-10T15:23:00.436Z,99.90
2022-10-10T15:25:33.300Z,99.90
2022-10-10T15:28:04.683Z,99.90
2022-10-10T15:30:31.646Z,99.90
2022-10-10T15:32:58.489Z,99.90
2022-10-10T15:35:26.330Z,99.90
2022-10-10T15:37:53.934Z,99.90
2022-10-10T15:40:23.531Z,99.90
2022-10-10T15:42:51.318Z,99.90
2022-10-10T15:45:43.552Z,99.90
2022-10-10T15:48:06.243Z,99.90
2022-10-10T15:50:36.046Z,99.90
2022-10-10T15:53:02.819Z,99.90
2022-10-10T15:55:29.617Z,99.90
2022-10-10T15:57:56.430Z,99.90
2022-10-10T16:00:23.280Z,99.90
2022-10-10T16:02:50.048Z,99.90
2022-10-10T16:05:16.878Z,99.90
2022-10-10T16:07:48.108Z,99.90
2022-10-10T16:10:15.607Z,99.90
2022-10-10T16:12:42.457Z,99.90
2022-10-10T16:15:09.688Z,99.90
2022-10-10T16:17:36.505Z,99.90
2022-10-10T16:20:03.904Z,99.90
2022-10-10T16:22:30.910Z,99.90
2022-10-10T16:25:20.809Z,99.90
2022-10-10T16:27:44.717Z,99.90
2022-10-10T16:30:11.738Z,99.90
2022-10-10T16:32:42.297Z,99.90
2022-10-10T16:35:10.972Z,99.90
2022-10-10T16:37:38.698Z,99.90
2022-10-10T16:40:06.729Z,99.90
2022-10-10T16:42:34.193Z,99.90
2022-10-10T16:45:00.989Z,99.90
2022-10-10T16:50:14.700Z,99.90
2022-10-10T16:52:41.710Z,99.90
2022-10-10T16:55:08.755Z,99.90
2022-10-10T16:57:36.554Z,99.90
2022-10-10T17:00:04.516Z,99.90
2022-10-10T17:02:31.345Z,99.90
2022-10-10T17:04:58.144Z,99.90
2022-10-10T17:07:25.123Z,99.90
2022-10-10T17:09:51.939Z,99.90
2022-10-10T17:12:19.549Z,99.90
2022-10-10T17:14:48.664Z,99.90
2022-10-10T17:17:17.520Z,99.90
2022-10-10T17:19:44.430Z,99.90
2022-10-10T17:22:11.265Z,99.90
2022-10-10T17:24:38.033Z,99.90
2022-10-10T17:27:05.171Z,99.90
2022-10-10T17:29:32.008Z,99.90
2022-10-10T17:32:01.635Z,99.90
2022-10-10T17:34:32.780Z,99.90
2022-10-10T17:36:59.612Z,99.90
2022-10-10T17:39:26.393Z,99.90
2022-10-10T17:41:53.268Z,99.90
2022-10-10T17:44:20.252Z,99.90
2022-10-10T17:46:47.048Z,99.90
2022-10-10T17:49:14.147Z,99.90
2022-10-10T17:51:41.544Z,99.90
2022-10-10T17:54:09.989Z,99.90
2022-10-10T17:56:37.588Z,99.90
2022-10-10T17:59:06.811Z,99.90
2022-10-10T18:01:34.829Z,99.90
2022-10-10T18:04:04.541Z,99.90
2022-10-10T18:06:31.936Z,99.90
2022-10-10T18:08:59.517Z,99.90
2022-10-10T18:11:29.229Z,99.90
2022-10-10T18:14:00.537Z,99.90
2022-10-10T18:16:30.640Z,99.90
2022-10-10T18:18:58.479Z,99.90
2022-10-10T18:21:25.729Z,99.90
2022-10-10T18:23:52.688Z,99.90
2022-10-10T18:26:22.235Z,99.90
2022-10-10T18:28:49.552Z,99.90
2022-10-10T18:31:21.224Z,99.90
2022-10-10T18:33:48.711Z,99.90
2022-10-10T18:36:18.831Z,99.90
2022-10-10T18:38:46.089Z,99.90
2022-10-10T18:41:15.903Z,99.90
2022-10-10T18:43:44.609Z,99.90
2022-10-10T18:46:14.314Z,99.90
2022-10-10T18:48:42.286Z,99.90
2022-10-10T18:51:13.313Z,99.90
2022-10-10T18:53:42.865Z,99.90
2022-10-10T18:56:11.648Z,99.90
2022-10-10T18:58:39.452Z,99.90
2022-10-10T19:01:11.708Z,99.90
2022-10-10T19:03:40.525Z,99.90
2022-10-10T19:06:10.596Z,99.90
2022-10-10T19:08:37.605Z,99.90
2022-10-10T19:11:06.644Z,99.90
2022-10-10T19:13:34.591Z,99.90
2022-10-10T19:16:06.038Z,99.90
2022-10-10T19:18:33.261Z,99.90
2022-10-10T19:21:01.707Z,99.90
2022-10-10T19:23:29.068Z,99.90
2022-10-10T19:25:56.294Z,99.90
2022-10-10T19:28:23.082Z,99.90
2022-10-10T19:30:49.939Z,99.90
2022-10-10T19:33:16.712Z,99.90
2022-10-10T19:35:51.410Z,99.90
2022-10-10T19:38:19.347Z,99.90
2022-10-10T19:40:47.857Z,99.90
2022-10-10T19:43:16.466Z,99.90
2022-10-10T19:45:47.019Z,99.90
2022-10-10T19:48:15.013Z,99.90
2022-10-10T19:50:43.165Z,99.90
2022-10-10T19:53:13.057Z,99.90
2022-10-10T19:55:41.286Z,99.90
2022-10-10T19:58:08.129Z,99.90
2022-10-10T20:00:37.220Z,99.90
2022-10-10T20:03:04.177Z,99.90
2022-10-10T20:05:31.159Z,99.90
2022-10-10T20:07:57.962Z,99.90
2022-10-10T20:10:24.852Z,99.90
2022-10-10T20:12:51.724Z,99.90
2022-10-10T20:15:18.584Z,99.90
2022-10-10T20:17:45.413Z,99.90
2022-10-10T20:20:12.324Z,99.90
2022-10-10T20:22:39.502Z,99.90
2022-10-10T20:25:07.015Z,99.90
2022-10-10T20:27:34.208Z,99.90
2022-10-10T20:30:01.080Z,99.90
2022-10-10T20:32:27.957Z,99.90
2022-10-10T20:34:54.952Z,99.90
2022-10-10T20:37:21.800Z,99.90
2022-10-10T20:39:48.578Z,99.90
2022-10-10T20:42:15.437Z,99.90
2022-10-10T20:44:42.228Z,99.90
2022-10-10T20:47:09.115Z,99.90
2022-10-10T20:49:36.054Z,99.90
2022-10-10T20:52:02.969Z,99.90
2022-10-10T20:54:29.773Z,99.90
2022-10-10T20:56:56.583Z,99.90
2022-10-10T20:59:24.685Z,99.90
2022-10-10T21:01:51.740Z,99.90
2022-10-10T21:04:18.776Z,99.90
2022-10-10T21:06:45.877Z,99.90
2022-10-10T21:09:15.049Z,99.90
2022-10-10T21:11:42.172Z,99.90
2022-10-10T21:14:10.165Z,99.90
2022-10-10T21:16:39.765Z,99.90
2022-10-10T21:19:09.289Z,99.90
2022-10-10T21:21:36.726Z,99.90
2022-10-10T21:24:05.732Z,99.90
2022-10-10T21:26:33.101Z,99.90
2022-10-10T21:29:01.255Z,99.90
2022-10-10T21:31:30.994Z,99.90
2022-10-10T21:33:59.142Z,99.90
2022-10-10T21:36:26.705Z,99.90
2022-10-10T21:38:57.221Z,99.90
2022-10-10T21:41:25.077Z,99.90
2022-10-10T21:43:57.193Z,99.90
2022-10-10T21:46:34.766Z,99.90
2022-10-10T21:49:06.976Z,99.90
2022-10-10T21:51:37.982Z,99.90
2022-10-10T21:54:05.294Z,99.90
2022-10-10T21:56:33.760Z,99.90
2022-10-10T21:59:01.574Z,99.90
2022-10-10T22:01:29.410Z,99.90
2022-10-10T22:03:56.539Z,99.90
2022-10-10T22:06:25.028Z,99.90
2022-10-10T22:08:54.502Z,99.90
2022-10-10T22:11:24.385Z,99.90
2022-10-10T22:13:51.651Z,99.90
2022-10-10T22:16:19.373Z,99.90
2022-10-10T22:18:46.379Z,99.90
2022-10-10T22:21:16.521Z,99.90
2022-10-10T22:23:44.649Z,99.90
2022-10-10T22:26:13.490Z,99.90
2022-10-10T22:28:40.979Z,99.90
2022-10-10T22:31:09.898Z,99.90
2022-10-10T22:33:37.696Z,99.90
2022-10-10T22:36:09.104Z,99.90
2022-10-10T22:38:44.155Z,99.90
2022-10-10T22:41:12.198Z,99.90
2022-10-10T22:43:39.683Z,99.90
2022-10-10T22:46:08.198Z,99.90
2022-10-10T22:48:36.066Z,99.90
2022-10-10T22:51:11.544Z,99.90
2022-10-10T22:53:42.271Z,99.90
2022-10-10T22:56:11.018Z,99.90
2022-10-10T22:58:38.369Z,99.90
2022-10-10T23:01:17.794Z,99.90
2022-10-10T23:03:45.274Z,99.90
2022-10-10T23:06:13.053Z,99.90
2022-10-10T23:08:40.081Z,99.90
2022-10-10T23:11:07.564Z,99.90
2022-10-10T23:13:34.742Z,99.90
2022-10-10T23:16:01.973Z,99.90
2022-10-10T23:18:30.172Z,99.90
2022-10-10T23:20:57.138Z,99.90
2022-10-10T23:23:24.345Z,99.90
2022-10-10T23:25:51.506Z,99.90
2022-10-10T23:28:18.929Z,99.90
2022-10-10T23:30:47.682Z,99.90
2022-10-10T23:33:15.476Z,99.90
2022-10-10T23:35:42.356Z,99.90
2022-10-10T23:38:09.185Z,99.90
2022-10-10T23:40:36.086Z,99.90
2022-10-10T23:43:03.005Z,99.90
2022-10-10T23:45:29.905Z,99.90
2022-10-10T23:47:56.754Z,99.90
2022-10-10T23:50:23.649Z,99.90
2022-10-10T23:52:50.497Z,99.90
2022-10-10T23:55:17.318Z,99.90
2022-10-10T23:57:44.144Z,99.90
